Alsace Manor, Pennsylvania
Current Conditions -  °F | °C
As of 10:54 AM on Sunday 21 Dec 2014 (Local Time) from KRDG Reporting Station
Overcast Overcast  
Wind Chill: -3°   Ceiling: 2800
Heat Index:   Visibility: 10mi
Dew Point: -6°   Wind: 7mph
Humidity: 61%   Direction: 320°NW
Pressure: 30.33"   Gusts: NA
Location:  40.4008°N, 75.8851°W
Report Text: KRDG 211554Z AUTO 32006KT 10SM OVC028 01/M06 A3033 RMK AO2 SLP280 T00061061
Loading
Personal Weather Stations






























Interactive Weather Map New forecast layout! Learn more

10-Day Weather Forecast

Advertisements
Track Severe Weather on mobile